Time;durP1;ratioP1;P1;durP2;ratioP2;P2;SDS_P1;SDS_P2;PMS_P1;PMS_P2;Temp;Humidity;BMP_temperature;BMP_pressure;BME280_temperature;BME280_humidity;BME280_pressure;Samples;Min_cycle;Max_cycle;Signal;HPM_P1;HPM_P2
2022/12/07 00:01:41;;;;;;;15.57;11.02;;;;;;;8.41;61.09;101693.94;4917505;29;20050;-65
2022/12/07 00:04:11;;;;;;;16.13;12.00;;;;;;;8.37;60.96;101697.69;4917075;29;20048;-66
2022/12/07 00:06:40;;;;;;;17.90;12.13;;;;;;;8.36;61.15;101692.41;4925372;29;20048;-66
2022/12/07 00:09:10;;;;;;;14.05;11.77;;;;;;;8.32;61.12;101696.16;4936785;29;20052;-66
2022/12/07 00:11:37;;;;;;;17.73;12.75;;;;;;;8.31;60.98;101694.41;4936979;29;20086;-67
2022/12/07 00:14:07;;;;;;;16.20;11.60;;;;;;;8.29;61.12;101686.47;4932923;29;20851;-66
2022/12/07 00:16:35;;;;;;;16.83;12.38;;;;;;;8.29;61.17;101689.13;4917909;29;20115;-66
2022/12/07 00:19:03;;;;;;;15.77;13.32;;;;;;;8.28;61.26;101690.94;4917777;29;20103;-66
2022/12/07 00:21:32;;;;;;;19.50;12.88;;;;;;;8.26;61.10;101682.13;4917694;29;20048;-67
2022/12/07 00:23:59;;;;;;;20.17;12.70;;;;;;;8.23;61.14;101679.59;4929294;29;20443;-66
2022/12/07 00:26:28;;;;;;;14.02;11.60;;;;;;;8.22;61.29;101683.22;4917398;29;20129;-68
2022/12/07 00:28:59;;;;;;;14.82;11.73;;;;;;;8.16;61.08;101680.78;4900592;29;20074;-66
2022/12/07 00:31:28;;;;;;;14.20;11.93;;;;;;;8.10;61.04;101681.09;4917369;29;20052;-66
2022/12/07 00:33:57;;;;;;;13.05;11.10;;;;;;;8.05;61.06;101669.75;4915750;29;20092;-66
2022/12/07 00:36:24;;;;;;;17.05;12.20;;;;;;;8.00;61.06;101668.22;4898881;29;20051;-66
2022/12/07 00:38:54;;;;;;;14.57;11.32;;;;;;;7.95;61.08;101666.63;4898680;29;20040;-66
2022/12/07 00:41:23;;;;;;;16.30;12.00;;;;;;;7.90;60.97;101663.31;4917783;29;20044;-67
2022/12/07 00:43:50;;;;;;;15.88;11.70;;;;;;;7.88;61.01;101670.53;4934639;29;20521;-67
2022/12/07 00:46:18;;;;;;;13.80;10.60;;;;;;;7.85;60.98;101664.47;4929007;29;20379;-65
2022/12/07 00:48:47;;;;;;;15.15;10.40;;;;;;;7.81;60.83;101665.53;4923703;29;20095;-66
2022/12/07 00:51:16;;;;;;;14.70;10.60;;;;;;;7.76;60.86;101670.25;4935826;29;20051;-65
2022/12/07 00:53:42;;;;;;;12.27;10.25;;;;;;;7.69;60.63;101669.66;4934755;29;20040;-66
2022/12/07 00:56:15;;;;;;;14.45;11.40;;;;;;;7.63;60.66;101665.47;4936176;29;20050;-66
2022/12/07 00:58:41;;;;;;;14.98;10.80;;;;;;;7.58;60.80;101666.59;4936157;29;20095;-66
2022/12/07 01:01:10;;;;;;;12.13;10.45;;;;;;;7.53;60.69;101672.16;4936133;29;20107;-66
2022/12/07 01:03:37;;;;;;;12.30;10.35;;;;;;;7.50;60.64;101674.09;4921343;29;20508;-66
2022/12/07 01:06:04;;;;;;;14.20;11.43;;;;;;;7.46;60.62;101670.69;4917151;29;20048;-67
2022/12/07 01:08:31;;;;;;;15.80;11.48;;;;;;;7.44;60.62;101669.91;4916776;29;20503;-67
2022/12/07 01:11:04;;;;;;;12.10;10.07;;;;;;;7.44;60.62;101666.38;4917208;29;20067;-66
2022/12/07 01:13:32;;;;;;;13.77;10.63;;;;;;;7.44;60.78;101663.69;4916453;29;20142;-66
2022/12/07 01:16:01;;;;;;;16.80;10.77;;;;;;;7.47;60.80;101664.41;4916979;29;20044;-67
2022/12/07 01:18:29;;;;;;;14.18;11.18;;;;;;;7.49;60.89;101665.22;4917202;29;20067;-66
2022/12/07 01:21:11;;;;;;;14.82;11.95;;;;;;;7.51;61.02;101670.50;4916907;29;20052;-66
2022/12/07 01:23:38;;;;;;;16.58;11.07;;;;;;;7.52;60.98;101673.09;4928524;29;20040;-66
2022/12/07 01:26:11;;;;;;;16.73;12.50;;;;;;;7.55;60.91;101680.97;4935808;29;20048;-66
2022/12/07 01:28:38;;;;;;;18.25;12.63;;;;;;;7.57;60.98;101676.44;4935854;29;20487;-65
2022/12/07 01:31:16;;;;;;;16.77;12.27;;;;;;;7.56;60.94;101661.31;4935934;29;20047;-66
2022/12/07 01:33:45;;;;;;;21.00;12.93;;;;;;;7.57;60.99;101670.22;4921207;29;20041;-66
2022/12/07 01:36:18;;;;;;;19.33;13.10;;;;;;;7.57;61.03;101668.41;4917186;29;20099;-65
2022/12/07 01:38:46;;;;;;;17.92;11.98;;;;;;;7.58;60.93;101672.81;4917035;29;20067;-65
2022/12/07 01:41:15;;;;;;;15.57;11.77;;;;;;;7.58;61.05;101671.94;4926990;29;20056;-65
2022/12/07 01:44:15;;;;;;;15.10;12.60;;;;;;;7.55;60.85;101672.09;4921980;29;20483;-65
2022/12/07 01:46:47;;;;;;;20.20;12.77;;;;;;;7.56;61.06;101665.81;4917205;29;20056;-66
2022/12/07 01:49:22;;;;;;;18.60;13.25;;;;;;;7.54;61.07;101657.84;4916720;29;20048;-66
2022/12/07 01:51:54;;;;;;;17.90;12.48;;;;;;;7.55;61.05;101662.25;4916625;29;20070;-66
2022/12/07 01:54:22;;;;;;;17.77;12.63;;;;;;;7.54;60.77;101671.22;4932824;29;20063;-65
2022/12/07 01:56:52;;;;;;;16.92;11.90;;;;;;;7.53;60.88;101663.28;4922210;29;20387;-66
2022/12/07 01:59:21;;;;;;;15.05;12.80;;;;;;;7.50;60.93;101660.75;4939437;29;20050;-65
2022/12/07 02:01:48;;;;;;;14.55;11.80;;;;;;;7.46;60.96;101670.69;4917129;29;20488;-66
2022/12/07 02:04:15;;;;;;;16.02;11.30;;;;;;;7.42;60.77;101666.41;4932231;29;20462;-66
2022/12/07 02:06:42;;;;;;;16.13;10.68;;;;;;;7.39;60.77;101658.53;4937773;29;20051;-66
2022/12/07 02:09:09;;;;;;;13.85;10.82;;;;;;;7.34;60.63;101665.88;4937630;29;20054;-66
2022/12/07 02:11:36;;;;;;;15.82;10.65;;;;;;;7.29;60.68;101662.53;4937075;29;20059;-66
2022/12/07 02:14:02;;;;;;;16.85;11.45;;;;;;;7.26;60.76;101660.00;4935988;29;20099;-65
2022/12/07 02:17:01;;;;;;;13.32;9.73;;;;;;;7.24;60.76;101652.06;4918470;29;20119;-65
2022/12/07 02:19:45;;;;;;;13.65;10.05;;;;;;;7.24;60.67;101654.72;4918762;29;20103;-65
2022/12/07 02:22:37;;;;;;;13.48;10.02;;;;;;;7.20;60.82;101654.94;4929339;29;20050;-65
2022/12/07 02:25:38;;;;;;;12.88;10.05;;;;;;;7.13;60.46;101659.69;4900853;29;20079;-65
2022/12/07 02:28:25;;;;;;;15.77;9.35;;;;;;;7.07;60.57;101657.28;4900779;29;20403;-66
2022/12/07 02:30:54;;;;;;;13.77;10.32;;;;;;;7.05;60.47;101660.94;4900720;29;20075;-65
2022/12/07 02:33:43;;;;;;;17.27;10.77;;;;;;;7.00;60.49;101661.16;4908740;29;20437;-66
2022/12/07 02:36:21;;;;;;;12.63;10.27;;;;;;;6.99;60.66;101662.94;4919659;29;20047;-66
2022/12/07 02:39:00;;;;;;;17.38;10.60;;;;;;;7.00;60.62;101659.34;4919476;29;20047;-65
2022/12/07 02:41:43;;;;;;;15.82;11.05;;;;;;;7.01;60.76;101665.56;4919666;29;20099;-65
2022/12/07 02:44:17;;;;;;;17.67;10.75;;;;;;;7.01;60.63;101658.41;4929800;29;20040;-65
2022/12/07 02:46:53;;;;;;;13.50;10.93;;;;;;;7.03;60.85;101658.34;4938237;29;20054;-65
2022/12/07 02:49:33;;;;;;;15.45;11.75;;;;;;;7.04;60.71;101643.19;4938526;29;20054;-65
2022/12/07 02:52:00;;;;;;;17.10;10.43;;;;;;;7.05;60.73;101644.91;4938085;29;20118;-65
2022/12/07 02:54:26;;;;;;;13.43;9.63;;;;;;;7.06;60.70;101652.00;4923723;29;20048;-66
2022/12/07 02:57:11;;;;;;;15.88;10.48;;;;;;;7.04;60.67;101656.53;4919304;29;20052;-65
2022/12/07 03:00:09;;;;;;;13.30;9.95;;;;;;;7.03;60.65;101655.66;4919355;29;20104;-66
2022/12/07 03:02:46;;;;;;;13.23;9.40;;;;;;;7.03;60.72;101657.47;4887623;29;20064;-65
2022/12/07 03:05:41;;;;;;;13.68;9.95;;;;;;;7.00;60.68;101656.69;4883257;29;20403;-66
2022/12/07 03:08:20;;;;;;;12.57;9.95;;;;;;;7.00;60.51;101655.81;4900189;29;20045;-65
2022/12/07 03:11:02;;;;;;;14.43;10.25;;;;;;;6.96;60.45;101659.53;4900212;29;20101;-66
2022/12/07 03:13:32;;;;;;;14.23;9.63;;;;;;;6.92;60.52;101656.13;4911419;29;20046;-66
2022/12/07 03:16:12;;;;;;;16.10;10.10;;;;;;;6.92;60.64;101658.81;4937677;29;20058;-66
2022/12/07 03:19:01;;;;;;;16.83;10.60;;;;;;;6.94;60.80;101656.06;4937924;29;20040;-66
2022/12/07 03:21:39;;;;;;;16.65;10.65;;;;;;;6.97;60.78;101654.13;4937833;29;20043;-66
2022/12/07 03:24:33;;;;;;;16.42;11.02;;;;;;;7.00;60.84;101655.81;4926469;29;20044;-66
2022/12/07 03:27:06;;;;;;;14.43;11.32;;;;;;;7.03;60.73;101660.16;4918384;29;20076;-65
2022/12/07 03:29:40;;;;;;;16.17;10.68;;;;;;;7.03;60.91;101657.47;4919166;29;20479;-66
2022/12/07 03:32:33;;;;;;;16.17;11.63;;;;;;;7.03;61.02;101665.50;4918438;29;20055;-66
2022/12/07 03:35:09;;;;;;;16.10;10.88;;;;;;;7.05;60.91;101652.94;4934166;29;20052;-65
2022/12/07 03:37:42;;;;;;;15.43;10.77;;;;;;;7.04;60.81;101651.19;4937615;29;20044;-65
2022/12/07 03:40:46;;;;;;;15.85;10.98;;;;;;;7.04;61.05;101656.53;4937636;29;20390;-67
2022/12/07 03:43:12;;;;;;;16.88;11.00;;;;;;;7.03;60.95;101647.66;4935775;29;20499;-66
2022/12/07 03:45:47;;;;;;;16.05;10.30;;;;;;;7.03;61.03;101650.34;4937356;29;20052;-66
2022/12/07 03:48:24;;;;;;;;;;;;;;;7.03;60.90;101641.44;4937892;29;20047;-66
2022/12/07 03:51:03;;;;;;;16.20;9.02;;;;;;;7.03;60.87;101642.31;4937138;29;20408;-66
2022/12/07 03:53:54;;;;;;;12.77;9.65;;;;;;;7.01;60.96;101642.38;4929128;29;20052;-64
2022/12/07 03:56:22;;;;;;;14.15;9.27;;;;;;;7.03;60.95;101646.78;4922120;29;20040;-66
2022/12/07 03:58:49;;;;;;;15.27;8.90;;;;;;;7.03;61.13;101646.78;4918553;29;20103;-65
2022/12/07 04:01:18;;;;;;;12.88;9.68;;;;;;;7.03;61.14;101650.34;4917922;29;20554;-66
2022/12/07 04:03:45;;;;;;;12.95;8.98;;;;;;;7.04;61.21;101646.72;4906904;29;20472;-66
2022/12/07 04:06:12;;;;;;;14.55;10.20;;;;;;;7.07;61.06;101643.91;4899066;29;20052;-65
2022/12/07 04:08:38;;;;;;;12.98;9.02;;;;;;;7.08;61.14;101645.66;4898973;29;20056;-65
2022/12/07 04:11:05;;;;;;;11.93;8.82;;;;;;;7.09;61.21;101646.53;4904030;29;20048;-66
2022/12/07 04:14:17;;;;;;;13.57;9.30;;;;;;;7.10;61.19;101645.59;4935350;29;20060;-66
2022/12/07 04:16:18;;;;;;;17.90;9.15;;;;;;;7.14;61.23;101644.53;4936737;29;20054;-65
2022/12/07 04:18:45;;;;;;;13.90;10.02;;;;;;;7.16;61.30;101648.00;4936323;29;20044;-66
2022/12/07 04:21:11;;;;;;;15.07;9.45;;;;;;;7.18;61.30;101643.44;4936725;29;20054;-65
2022/12/07 04:23:38;;;;;;;12.95;9.32;;;;;;;7.21;61.38;101643.31;4935112;29;20040;-65
2022/12/07 04:26:10;;;;;;;15.07;10.27;;;;;;;7.26;61.42;101649.31;4936618;29;20486;-66
2022/12/07 04:28:37;;;;;;;14.93;9.35;;;;;;;7.29;61.41;101642.03;4936526;29;20044;-65
2022/12/07 04:31:03;;;;;;;16.35;9.88;;;;;;;7.33;61.50;101646.31;4932903;29;20062;-66
2022/12/07 04:33:30;;;;;;;12.27;8.70;;;;;;;7.35;61.49;101646.22;4916698;29;20037;-66
2022/12/07 04:35:57;;;;;;;11.93;8.82;;;;;;;7.38;61.50;101650.56;4917581;29;20040;-65
2022/12/07 04:38:23;;;;;;;16.85;9.45;;;;;;;7.37;61.26;101652.38;4917451;29;20401;-65
2022/12/07 04:40:50;;;;;;;16.08;10.02;;;;;;;7.37;61.52;101659.53;4917371;29;20547;-69
2022/12/07 04:43:16;;;;;;;15.75;9.38;;;;;;;7.38;61.43;101645.22;4925417;29;20039;-65
2022/12/07 04:45:47;;;;;;;15.13;8.52;;;;;;;7.39;61.65;101645.16;4936067;29;20054;-66
2022/12/07 04:48:14;;;;;;;12.82;9.48;;;;;;;7.42;61.79;101633.47;4936133;29;20099;-66
2022/12/07 04:50:41;;;;;;;12.02;9.27;;;;;;;7.44;61.88;101619.13;4936541;29;20046;-66
2022/12/07 04:53:11;;;;;;;18.33;9.13;;;;;;;7.50;61.76;101628.66;4926930;29;20059;-65
2022/12/07 04:55:38;;;;;;;12.45;8.25;;;;;;;7.53;61.78;101620.50;4917327;29;20044;-65
2022/12/07 04:58:05;;;;;;;12.02;8.68;;;;;;;7.55;61.77;101619.50;4917053;29;20495;-66
2022/12/07 05:00:31;;;;;;;16.27;8.73;;;;;;;7.57;61.79;101619.44;4917076;29;20483;-66
2022/12/07 05:02:58;;;;;;;15.07;8.32;;;;;;;7.57;61.85;101619.44;4922191;29;20039;-66
2022/12/07 05:05:24;;;;;;;12.05;8.45;;;;;;;7.58;61.77;101626.50;4936247;29;20040;-66
2022/12/07 05:07:51;;;;;;;11.73;8.30;;;;;;;7.56;61.79;101620.38;4936058;29;20047;-66
2022/12/07 05:10:18;;;;;;;9.77;6.55;;;;;;;7.55;61.83;101624.84;4936181;29;20039;-66
2022/12/07 05:12:45;;;;;;;11.05;6.72;;;;;;;7.53;61.80;101620.50;4934447;29;20035;-66
2022/12/07 05:15:13;;;;;;;11.77;6.43;;;;;;;7.51;61.61;101617.03;4936186;29;20071;-66
2022/12/07 05:17:39;;;;;;;10.50;6.22;;;;;;;7.45;61.49;101620.84;4936112;29;20055;-65
2022/12/07 05:20:07;;;;;;;10.80;5.57;;;;;;;7.40;61.32;101625.50;4935939;29;20036;-66
2022/12/07 05:22:34;;;;;;;9.63;6.13;;;;;;;7.36;61.12;101626.59;4932851;29;20100;-66
2022/12/07 05:25:01;;;;;;;8.00;6.00;;;;;;;7.33;61.32;101634.75;4935822;29;20051;-66
2022/12/07 05:27:27;;;;;;;12.20;6.25;;;;;;;7.31;61.29;101628.59;4935781;29;20052;-66
2022/12/07 05:29:54;;;;;;;10.18;6.80;;;;;;;7.29;61.21;101633.16;4937634;29;20099;-66
2022/12/07 05:32:20;;;;;;;9.60;5.80;;;;;;;7.25;61.13;101628.88;4938080;29;20410;-66
2022/12/07 05:34:47;;;;;;;8.00;6.20;;;;;;;7.21;61.11;101630.81;4939139;29;20043;-67
2022/12/07 05:37:13;;;;;;;10.52;6.82;;;;;;;7.18;61.00;101636.31;4939573;29;20055;-67
2022/12/07 05:39:42;;;;;;;11.80;6.13;;;;;;;7.14;61.02;101624.00;4939644;29;20048;-66
2022/12/07 05:42:13;;;;;;;9.65;5.55;;;;;;;7.13;60.94;101629.44;4939535;29;20501;-66
2022/12/07 05:44:42;;;;;;;8.63;5.57;;;;;;;7.09;60.89;101627.81;4938195;29;20451;-66
2022/12/07 05:47:09;;;;;;;8.13;6.60;;;;;;;7.06;60.68;101627.97;4939300;29;20043;-66
2022/12/07 05:49:36;;;;;;;10.15;6.43;;;;;;;7.01;60.76;101623.69;4939611;29;20439;-67
2022/12/07 05:52:02;;;;;;;8.75;5.82;;;;;;;6.99;60.75;101630.91;4937253;29;20059;-66
2022/12/07 05:54:29;;;;;;;11.27;7.20;;;;;;;6.97;60.70;101622.09;4919980;29;20048;-66
2022/12/07 05:56:56;;;;;;;10.57;7.10;;;;;;;6.96;60.80;101619.50;4910374;29;20043;-66
2022/12/07 05:59:23;;;;;;;9.43;7.25;;;;;;;6.95;60.77;101623.97;4908788;29;20057;-66
2022/12/07 06:01:50;;;;;;;10.38;7.40;;;;;;;6.93;60.84;101620.50;4911577;29;20048;-67
2022/12/07 06:04:17;;;;;;;10.05;7.45;;;;;;;6.92;60.90;101616.09;4937257;29;20075;-66
2022/12/07 06:06:43;;;;;;;9.23;7.22;;;;;;;6.91;60.85;101617.03;4939149;29;20051;-66
2022/12/07 06:09:10;;;;;;;9.80;6.82;;;;;;;6.89;60.89;101615.34;4938947;29;20055;-67
2022/12/07 06:14:22;;;;;;;12.50;6.88;;;;;;;6.82;60.99;101614.75;4919893;29;20060;-67
2022/12/07 06:16:48;;;;;;;9.80;6.85;;;;;;;6.79;60.75;101606.88;4920056;29;20404;-66
2022/12/07 06:19:15;;;;;;;10.52;6.32;;;;;;;6.78;60.82;101610.47;4919833;29;20091;-67
2022/12/07 06:21:42;;;;;;;9.93;6.60;;;;;;;6.77;60.76;101611.41;4919099;29;20060;-67
2022/12/07 06:24:11;;;;;;;9.40;6.43;;;;;;;6.77;60.83;101622.09;4919113;29;20103;-66
2022/12/07 06:26:38;;;;;;;10.32;6.53;;;;;;;6.78;60.81;101610.47;4919648;29;20380;-66
2022/12/07 06:29:05;;;;;;;10.07;6.57;;;;;;;6.80;60.96;101618.41;4920080;29;20402;-66
2022/12/07 06:31:31;;;;;;;10.55;7.18;;;;;;;6.81;60.91;101617.47;4930654;29;20044;-66
2022/12/07 06:34:03;;;;;;;13.45;6.78;;;;;;;6.80;60.94;101616.63;4937010;29;20048;-65
2022/12/07 06:36:30;;;;;;;13.00;6.88;;;;;;;6.80;61.17;101621.97;4938582;29;20051;-65
2022/12/07 06:38:57;;;;;;;10.77;6.10;;;;;;;6.81;61.00;101617.47;4922222;29;20040;-66
2022/12/07 06:41:24;;;;;;;11.45;6.20;;;;;;;6.80;61.12;101619.28;4920723;29;20099;-67
2022/12/07 06:43:51;;;;;;;8.90;5.80;;;;;;;6.79;60.94;101622.03;4918153;29;20462;-66
2022/12/07 06:46:22;;;;;;;7.07;5.68;;;;;;;6.74;61.02;101618.69;4903162;29;20063;-65
2022/12/07 06:48:49;;;;;;;11.27;5.82;;;;;;;6.70;60.90;101620.63;4919458;29;20391;-66
2022/12/07 06:51:16;;;;;;;6.57;5.50;;;;;;;6.69;61.00;101618.88;4929456;29;20043;-66
2022/12/07 06:53:43;;;;;;;11.35;6.18;;;;;;;6.68;61.02;101630.47;4938239;29;20039;-66
2022/12/07 06:56:10;;;;;;;8.75;5.70;;;;;;;6.66;60.90;101630.53;4938280;29;20051;-65
2022/12/07 06:58:37;;;;;;;7.78;5.65;;;;;;;6.65;60.94;101631.44;4938415;29;20070;-65
2022/12/07 07:01:14;;;;;;;9.07;5.38;;;;;;;6.64;60.72;101629.72;4915381;29;20048;-65
2022/12/07 07:03:41;;;;;;;8.60;4.93;;;;;;;6.62;60.89;101622.72;4937050;29;20054;-65
2022/12/07 07:06:09;;;;;;;9.32;5.57;;;;;;;6.60;60.91;101624.56;4937808;29;20044;-65
2022/12/07 07:08:36;;;;;;;11.05;5.72;;;;;;;6.58;60.75;101621.09;4937812;29;20491;-66
2022/12/07 07:11:03;;;;;;;9.95;4.72;;;;;;;6.54;60.78;101620.38;4911010;29;20166;-65
2022/12/07 07:13:30;;;;;;;8.65;5.35;;;;;;;6.53;60.76;101626.63;4901650;29;20063;-65
2022/12/07 07:15:57;;;;;;;9.57;5.28;;;;;;;6.52;60.76;101629.38;4901325;29;20107;-65
2022/12/07 07:18:23;;;;;;;10.02;5.68;;;;;;;6.51;60.80;101628.50;4919278;29;20423;-66
2022/12/07 07:20:51;;;;;;;11.52;5.63;;;;;;;6.50;60.73;101637.44;4927006;29;20048;-66
2022/12/07 07:23:19;;;;;;;8.40;5.40;;;;;;;6.50;60.66;101628.56;4937570;29;20047;-65
2022/12/07 07:25:46;;;;;;;10.48;6.30;;;;;;;6.47;60.69;101631.34;4937758;29;20554;-66
2022/12/07 07:28:13;;;;;;;6.65;5.80;;;;;;;6.45;60.56;101627.88;4937119;29;20047;-65
2022/12/07 07:30:39;;;;;;;9.00;6.15;;;;;;;6.41;60.70;101635.16;4927879;29;20480;-66
2022/12/07 07:33:06;;;;;;;10.38;6.07;;;;;;;6.40;60.74;101638.75;4918259;29;20048;-65
2022/12/07 07:35:33;;;;;;;9.68;6.40;;;;;;;6.39;60.72;101639.69;4913043;29;20132;-66
2022/12/07 07:38:00;;;;;;;10.10;6.18;;;;;;;6.37;60.82;101636.22;4908525;29;20451;-65
2022/12/07 07:40:31;;;;;;;9.85;6.95;;;;;;;6.36;60.76;101637.13;4917684;29;20116;-66
2022/12/07 07:42:58;;;;;;;11.07;6.05;;;;;;;6.34;60.88;101639.88;4918658;29;20050;-67
2022/12/07 07:45:26;;;;;;;10.93;6.03;;;;;;;6.35;60.81;101638.94;4901241;29;20064;-66
2022/12/07 07:47:53;;;;;;;11.48;6.88;;;;;;;6.35;60.73;101630.06;4917149;29;20086;-67
2022/12/07 07:50:20;;;;;;;11.27;7.13;;;;;;;6.34;60.83;101631.00;4918311;29;20098;-66
2022/12/07 07:52:47;;;;;;;9.63;6.45;;;;;;;6.34;60.77;101641.66;4917172;29;20048;-66
2022/12/07 07:55:14;;;;;;;11.27;6.63;;;;;;;6.34;60.79;101634.53;4918485;29;20040;-67
2022/12/07 07:57:41;;;;;;;10.02;6.78;;;;;;;6.33;60.79;101635.47;4918355;29;20048;-67
2022/12/07 08:00:13;;;;;;;12.23;7.45;;;;;;;6.32;60.88;101639.06;4916528;29;20041;-66
2022/12/07 08:02:40;;;;;;;12.00;7.20;;;;;;;6.33;60.90;101650.59;4918310;29;20059;-66
2022/12/07 08:05:07;;;;;;;10.68;7.05;;;;;;;6.33;61.07;101647.94;4918120;29;20044;-66
2022/12/07 08:07:34;;;;;;;12.52;7.13;;;;;;;6.33;61.00;101651.47;4917705;29;20155;-66
2022/12/07 08:10:00;;;;;;;12.50;7.15;;;;;;;6.33;60.91;101642.59;4917791;29;20044;-66
2022/12/07 08:12:27;;;;;;;11.75;7.13;;;;;;;6.33;60.93;101642.59;4922295;29;20060;-66
2022/12/07 08:14:54;;;;;;;10.63;7.22;;;;;;;6.33;60.99;101645.28;4937060;29;20050;-66
2022/12/07 08:17:21;;;;;;;13.20;6.47;;;;;;;6.34;60.83;101642.53;4936565;29;20052;-66
2022/12/07 08:19:47;;;;;;;15.35;7.57;;;;;;;6.36;60.87;101645.16;4921201;29;20052;-66
2022/12/07 08:22:14;;;;;;;47.20;9.38;;;;;;;6.41;61.04;101635.16;4917268;29;20046;-65
2022/12/07 08:24:40;;;;;;;40.63;11.18;;;;;;;6.48;61.05;101639.31;4917870;29;20050;-66
2022/12/07 08:27:07;;;;;;;12.25;6.35;;;;;;;6.56;61.11;101641.66;4917712;29;20167;-66
2022/12/07 08:29:33;;;;;;;12.45;7.35;;;;;;;6.65;61.19;101654.59;4917741;29;20044;-66
2022/12/07 08:32:01;;;;;;;11.02;7.28;;;;;;;6.71;61.32;101657.06;4917478;29;20052;-66
2022/12/07 08:34:35;;;;;;;9.63;7.00;;;;;;;6.78;61.29;101646.97;4917477;29;20082;-66
2022/12/07 08:37:02;;;;;;;12.85;7.05;;;;;;;6.82;61.05;101660.13;4917647;29;20044;-65
2022/12/07 08:39:28;;;;;;;9.13;6.95;;;;;;;6.84;61.13;101655.59;4917455;29;20044;-66
2022/12/07 08:41:58;;;;;;;8.27;6.50;;;;;;;6.88;61.20;101659.00;4917503;29;20100;-66
2022/12/07 08:44:24;;;;;;;13.70;7.10;;;;;;;6.94;61.06;101662.28;4917460;29;20483;-67
2022/12/07 08:46:56;;;;;;;9.15;6.85;;;;;;;7.01;61.17;101661.09;4917447;29;20041;-67
2022/12/07 08:49:33;;;;;;;10.60;7.25;;;;;;;7.12;61.31;101660.63;4917691;29;20044;-66
2022/12/07 08:51:59;;;;;;;10.38;8.38;;;;;;;7.22;61.39;101659.28;4902885;29;20052;-66
2022/12/07 08:54:28;;;;;;;11.93;8.75;;;;;;;7.32;61.55;101657.06;4898444;29;20048;-66
2022/12/07 08:56:56;;;;;;;14.10;9.35;;;;;;;7.40;61.43;101657.59;4898295;29;20056;-66
2022/12/07 08:59:26;;;;;;;14.38;9.45;;;;;;;7.48;61.39;101662.63;4898247;29;20052;-66
2022/12/07 09:01:53;;;;;;;13.68;10.02;;;;;;;7.55;61.54;101653.38;4898375;29;20068;-66
2022/12/07 09:04:20;;;;;;;15.68;9.68;;;;;;;7.61;61.43;101653.97;4898217;29;20036;-66
2022/12/07 09:06:47;;;;;;;15.60;10.13;;;;;;;7.68;61.45;101656.34;4898225;29;20041;-67
2022/12/07 09:09:14;;;;;;;15.65;9.68;;;;;;;7.73;61.69;101649.84;4898379;29;20089;-66
2022/12/07 09:11:41;;;;;;;12.15;9.02;;;;;;;7.79;61.79;101651.38;4898105;29;20100;-66
2022/12/07 09:14:08;;;;;;;13.32;8.55;;;;;;;7.84;61.70;101652.03;4898443;29;20045;-66
2022/12/07 09:16:34;;;;;;;14.05;8.85;;;;;;;7.90;61.68;101651.75;4898099;29;20045;-66
2022/12/07 09:19:01;;;;;;;15.45;8.60;;;;;;;7.95;61.95;101652.38;4898155;29;20040;-65
2022/12/07 09:21:28;;;;;;;11.95;8.55;;;;;;;8.01;61.83;101660.13;4897830;29;20051;-66
2022/12/07 09:23:54;;;;;;;12.27;8.32;;;;;;;8.08;61.84;101655.34;4898240;29;20047;-66
2022/12/07 09:26:21;;;;;;;16.27;8.88;;;;;;;8.16;61.84;101654.03;4911602;29;20044;-66
2022/12/07 09:28:47;;;;;;;14.10;8.60;;;;;;;8.22;61.86;101658.25;4917175;29;20044;-66
2022/12/07 09:31:14;;;;;;;19.05;9.43;;;;;;;8.28;62.04;101658.84;4917063;29;20050;-66
2022/12/07 09:33:59;;;;;;;15.20;8.85;;;;;;;8.37;62.03;101662.03;4917262;29;20070;-66
2022/12/07 09:36:27;;;;;;;15.15;8.98;;;;;;;8.42;61.89;101660.00;4917043;29;20067;-66
2022/12/07 09:38:54;;;;;;;12.63;9.20;;;;;;;8.49;61.97;101659.63;4916940;29;20044;-66
2022/12/07 09:41:23;;;;;;;13.73;8.85;;;;;;;8.55;62.06;101670.03;4916770;29;20040;-65
2022/12/07 09:43:50;;;;;;;16.55;9.27;;;;;;;8.61;61.95;101666.16;4916628;29;20076;-66
2022/12/07 09:46:20;;;;;;;16.27;8.32;;;;;;;8.66;61.94;101661.47;4917006;29;20099;-67
2022/12/07 09:48:48;;;;;;;14.55;9.10;;;;;;;8.70;62.13;101660.34;4917012;29;20078;-66
2022/12/07 09:51:23;;;;;;;13.27;8.25;;;;;;;8.72;61.77;101658.47;4926501;29;20402;-66
2022/12/07 09:53:54;;;;;;;15.20;8.60;;;;;;;8.74;62.08;101661.94;4935393;29;20043;-66
2022/12/07 09:56:22;;;;;;;15.68;8.43;;;;;;;8.77;61.91;101653.75;4935590;29;20558;-66
2022/12/07 09:58:50;;;;;;;10.65;8.32;;;;;;;8.85;61.91;101654.22;4935753;29;20114;-66
2022/12/07 10:01:21;;;;;;;13.48;7.88;;;;;;;8.92;61.96;101649.44;4933211;29;20565;-66
2022/12/07 10:04:06;;;;;;;10.48;7.82;;;;;;;8.98;62.00;101650.94;4897601;29;20032;-67
2022/12/07 10:06:33;;;;;;;9.93;7.00;;;;;;;9.04;61.93;101643.47;4897886;29;20055;-67
2022/12/07 10:08:59;;;;;;;13.00;7.90;;;;;;;9.12;62.13;101646.59;4897881;29;20049;-66
2022/12/07 10:11:26;;;;;;;12.93;7.82;;;;;;;9.18;62.12;101646.28;4897645;29;20036;-66
2022/12/07 10:13:53;;;;;;;11.73;6.43;;;;;;;9.30;62.29;101646.56;4916240;29;20040;-66
2022/12/07 10:16:39;;;;;;;13.60;6.60;;;;;;;9.39;62.12;101641.59;4925989;29;20055;-66
2022/12/07 10:19:31;;;;;;;12.00;5.80;;;;;;;9.51;62.23;101637.38;4920126;29;20087;-66
2022/12/07 10:22:14;;;;;;;13.02;5.25;;;;;;;9.63;62.34;101631.34;4920036;29;20044;-70
2022/12/07 10:24:42;;;;;;;10.68;4.90;;;;;;;9.70;62.28;101627.41;4904227;29;20395;-66
2022/12/07 10:27:35;;;;;;;10.10;4.47;;;;;;;9.77;62.28;101628.81;4919654;29;20384;-65
2022/12/07 10:30:07;;;;;;;6.25;4.60;;;;;;;9.86;62.03;101622.06;4916493;29;20152;-66
2022/12/07 10:32:36;;;;;;;8.80;4.53;;;;;;;9.93;62.21;101611.84;4918687;29;20048;-66
2022/12/07 10:35:21;;;;;;;6.25;4.00;;;;;;;9.99;61.97;101620.44;4919582;29;20189;-66
2022/12/07 10:37:49;;;;;;;10.68;3.63;;;;;;;10.06;61.80;101611.09;4919521;29;20080;-68
2022/12/07 10:40:36;;;;;;;8.18;4.00;;;;;;;10.08;61.91;101617.22;4919666;29;20050;-66
2022/12/07 10:43:13;;;;;;;8.10;3.78;;;;;;;10.14;61.67;101610.66;4919430;29;20052;-66
2022/12/07 10:46:13;;;;;;;9.93;4.03;;;;;;;10.16;61.53;101598.00;4919823;29;20044;-66
2022/12/07 10:48:55;;;;;;;6.40;3.03;;;;;;;10.18;61.60;101601.47;4902241;29;20063;-67
2022/12/07 10:51:47;;;;;;;7.90;3.33;;;;;;;10.18;61.59;101596.97;4919466;29;20044;-67
2022/12/07 10:54:49;;;;;;;9.40;2.92;;;;;;;10.19;61.34;101595.13;4919497;29;20048;-66
2022/12/07 10:57:21;;;;;;;7.10;3.25;;;;;;;10.19;61.23;101593.31;4919401;29;20052;-66
2022/12/07 10:59:51;;;;;;;7.85;3.47;;;;;;;10.18;61.30;101596.97;4919298;29;20142;-65
2022/12/07 11:02:54;;;;;;;6.15;2.92;;;;;;;10.17;61.02;101592.53;4917456;29;20040;-66
2022/12/07 11:05:27;;;;;;;7.65;3.50;;;;;;;10.21;61.11;101595.09;4887907;29;20503;-66
2022/12/07 11:08:09;;;;;;;9.73;3.80;;;;;;;10.21;60.96;101584.34;4918162;29;20060;-66
2022/12/07 11:10:43;;;;;;;5.90;2.72;;;;;;;10.25;60.86;101572.47;4918822;29;20040;-66
2022/12/07 11:13:42;;;;;;;6.38;2.90;;;;;;;10.24;60.83;101576.97;4918003;29;20559;-67
2022/12/07 11:16:11;;;;;;;7.07;2.47;;;;;;;10.27;61.05;101573.25;4911451;29;20400;-67
2022/12/07 11:19:03;;;;;;;6.07;2.70;;;;;;;10.27;60.91;101565.19;4932494;29;20048;-67
2022/12/07 11:21:58;;;;;;;8.88;3.15;;;;;;;10.29;61.03;101571.34;4928279;29;20503;-67
2022/12/07 11:24:32;;;;;;;6.13;2.75;;;;;;;10.32;60.87;101568.47;4884294;29;20060;-67
2022/12/07 11:27:13;;;;;;;6.47;2.77;;;;;;;10.33;60.94;101570.22;4929539;29;20048;-66
2022/12/07 11:29:55;;;;;;;12.07;3.05;;;;;;;10.35;60.74;101566.47;4937288;29;20048;-67
2022/12/07 11:32:33;;;;;;;6.60;2.90;;;;;;;10.37;60.69;101555.66;4937281;29;20047;-67
2022/12/07 11:35:40;;;;;;;7.68;2.90;;;;;;;10.39;60.86;101562.66;4937389;29;20102;-68
2022/12/07 11:38:14;;;;;;;10.98;3.20;;;;;;;10.42;60.78;101556.28;4898728;29;20060;-67
2022/12/07 11:40:46;;;;;;;12.52;3.80;;;;;;;10.43;60.79;101558.88;4931209;29;20514;-67
2022/12/07 11:43:18;;;;;;;6.70;3.50;;;;;;;10.43;60.90;101548.13;4918095;29;20509;-66
2022/12/07 11:45:54;;;;;;;13.43;3.50;;;;;;;10.41;60.55;101547.34;4904516;29;20044;-66
2022/12/07 11:48:56;;;;;;;8.25;3.80;;;;;;;10.45;60.55;101548.03;4899352;29;20056;-67